Time;durP1;ratioP1;P1;durP2;ratioP2;P2;SDS_P1;SDS_P2;PMS_P1;PMS_P2;Temp;Humidity;BMP_temperature;BMP_pressure;BME280_temperature;BME280_humidity;BME280_pressure;Samples;Min_cycle;Max_cycle;Signal;HPM_P1;HPM_P2
2021/09/20 00:02:02;;;;;;;;;;;13.50;99.90;;;;;;5040770;28;19913;-81
2021/09/20 00:04:27;;;;;;;;;;;13.50;99.90;;;;;;5036790;28;20027;-80
2021/09/20 00:06:53;;;;;;;;;;;13.50;99.90;;;;;;5051090;28;19967;-80
2021/09/20 00:09:18;;;;;;;;;;;13.40;99.90;;;;;;5041359;28;20296;-82
2021/09/20 00:11:44;;;;;;;;;;;13.40;99.90;;;;;;5031034;28;19913;-80
2021/09/20 00:14:09;;;;;;;;;;;13.30;99.90;;;;;;5042371;28;19982;-80
2021/09/20 00:16:35;;;;;;;;;;;13.30;1.00;;;;;;5046819;28;19917;-80
2021/09/20 00:19:00;;;;;;;;;;;13.30;1.00;;;;;;5026786;28;19940;-81
2021/09/20 00:21:26;;;;;;;;;;;13.30;1.00;;;;;;5034117;28;20412;-80
2021/09/20 00:23:52;;;;;;;;;;;13.30;99.90;;;;;;5042332;28;20016;-80
2021/09/20 00:26:18;;;;;;;;;;;13.20;99.90;;;;;;5054867;28;20008;-80
2021/09/20 00:28:43;;;;;;;;;;;13.20;99.90;;;;;;5052719;28;19917;-80
2021/09/20 00:31:09;;;;;;;;;;;13.20;1.00;;;;;;5051545;28;19913;-80
2021/09/20 00:33:34;;;;;;;;;;;13.20;1.00;;;;;;5054261;28;20005;-81
2021/09/20 00:36:00;;;;;;;;;;;13.10;1.00;;;;;;5029495;28;19935;-80
2021/09/20 00:38:25;;;;;;;;;;;13.10;10.90;;;;;;5040573;28;19928;-81
2021/09/20 00:40:51;;;;;;;;;;;13.10;99.90;;;;;;5031381;28;19987;-80
2021/09/20 00:43:16;;;;;;;;;;;13.10;99.90;;;;;;5039419;28;19916;-80
2021/09/20 00:45:42;;;;;;;;;;;13.10;1.00;;;;;;5045117;28;20388;-80
2021/09/20 00:48:07;;;;;;;;;;;13.10;1.00;;;;;;5051264;28;19958;-81
2021/09/20 00:50:33;;;;;;;;;;;13.00;1.00;;;;;;5036714;28;19910;-81
2021/09/20 00:52:59;;;;;;;;;;;13.00;2.40;;;;;;5054294;28;19920;-81
2021/09/20 00:55:24;;;;;;;;;;;12.90;98.10;;;;;;5049264;28;20385;-81
2021/09/20 00:57:50;;;;;;;;;;;12.90;99.90;;;;;;5052472;28;20300;-81
2021/09/20 01:00:16;;;;;;;;;;;12.90;99.90;;;;;;5035109;28;20035;-81
2021/09/20 01:02:42;;;;;;;;;;;12.90;99.90;;;;;;5050034;28;20373;-81
2021/09/20 01:05:08;;;;;;;;;;;12.90;99.90;;;;;;5057263;28;19919;-80
2021/09/20 01:07:33;;;;;;;;;;;12.90;96.20;;;;;;5055315;28;20237;-80
2021/09/20 01:09:59;;;;;;;;;;;12.80;68.80;;;;;;5038016;28;19917;-81
2021/09/20 01:12:25;;;;;;;;;;;12.80;41.90;;;;;;5037793;28;20442;-82
2021/09/20 01:14:50;;;;;;;;;;;12.70;88.60;;;;;;5056748;28;19968;-81
2021/09/20 01:17:15;;;;;;;;;;;12.70;99.90;;;;;;5040025;28;19948;-80
2021/09/20 01:19:41;;;;;;;;;;;12.80;99.90;;;;;;5054560;28;19916;-80
2021/09/20 01:22:13;;;;;;;;;;;12.70;99.90;;;;;;5042290;28;19920;-81
2021/09/20 01:24:38;;;;;;;;;;;12.70;99.90;;;;;;5046420;28;20435;-80
2021/09/20 01:27:04;;;;;;;;;;;12.60;99.90;;;;;;5031837;28;19912;-80
2021/09/20 01:29:30;;;;;;;;;;;12.70;99.90;;;;;;5056460;28;19988;-80
2021/09/20 01:31:58;;;;;;;;;;;12.60;99.90;;;;;;5044080;28;20381;-80
2021/09/20 01:34:24;;;;;;;;;;;12.60;53.10;;;;;;5053695;28;19920;-80
2021/09/20 01:36:51;;;;;;;;;;;12.60;2.40;;;;;;5050863;28;19913;-80
2021/09/20 01:39:18;;;;;;;;;;;12.50;50.80;;;;;;5036487;28;19913;-80
2021/09/20 01:41:44;;;;;;;;;;;12.50;90.40;;;;;;5044825;28;19913;-80
2021/09/20 01:44:10;;;;;;;;;;;12.50;99.90;;;;;;5057958;28;19976;-80
2021/09/20 01:46:35;;;;;;;;;;;12.50;91.40;;;;;;5052853;28;19963;-80
2021/09/20 01:49:01;;;;;;;;;;;12.40;55.30;;;;;;5047773;28;19944;-81
2021/09/20 01:51:27;;;;;;;;;;;12.40;87.00;;;;;;5050404;28;19913;-81
2021/09/20 01:53:52;;;;;;;;;;;12.40;99.90;;;;;;5041788;28;19921;-80
2021/09/20 01:56:18;;;;;;;;;;;12.40;99.90;;;;;;5045709;28;19913;-80
2021/09/20 01:58:43;;;;;;;;;;;12.30;99.90;;;;;;5058565;28;19932;-80
2021/09/20 02:01:09;;;;;;;;;;;12.30;99.90;;;;;;5051327;28;19913;-80
2021/09/20 02:03:34;;;;;;;;;;;12.30;99.90;;;;;;5043718;28;19917;-81
2021/09/20 02:06:00;;;;;;;;;;;12.30;99.90;;;;;;5028790;28;19931;-81
2021/09/20 02:08:25;;;;;;;;;;;12.20;1.00;;;;;;5052349;28;19917;-80
2021/09/20 02:10:51;;;;;;;;;;;12.20;1.00;;;;;;5043556;28;19938;-81
2021/09/20 02:13:16;;;;;;;;;;;12.20;99.90;;;;;;5059419;28;19913;-81
2021/09/20 02:15:41;;;;;;;;;;;12.10;99.90;;;;;;5057739;28;20357;-81
2021/09/20 02:18:07;;;;;;;;;;;12.10;1.00;;;;;;5041302;28;19927;-81
2021/09/20 02:20:32;;;;;;;;;;;12.00;93.00;;;;;;5059176;28;20367;-81
2021/09/20 02:22:58;;;;;;;;;;;12.00;99.90;;;;;;5059270;28;20026;-80
2021/09/20 02:25:23;;;;;;;;;;;11.90;99.90;;;;;;5059990;28;20020;-80
2021/09/20 02:27:49;;;;;;;;;;;11.90;1.00;;;;;;5040352;28;19920;-81
2021/09/20 02:30:14;;;;;;;;;;;11.90;1.00;;;;;;5053186;28;20408;-81
2021/09/20 02:32:40;;;;;;;;;;;11.80;1.00;;;;;;5059746;28;19926;-80
2021/09/20 02:35:06;;;;;;;;;;;11.80;1.00;;;;;;5044394;28;19913;-80
2021/09/20 02:37:32;;;;;;;;;;;11.70;16.50;;;;;;5040133;28;19965;-80
2021/09/20 02:39:57;;;;;;;;;;;11.70;99.90;;;;;;5045966;28;20438;-80
2021/09/20 02:42:23;;;;;;;;;;;11.70;99.90;;;;;;5039849;28;19910;-80
2021/09/20 02:44:48;;;;;;;;;;;11.70;99.90;;;;;;5042633;28;19967;-80
2021/09/20 02:47:14;;;;;;;;;;;11.70;99.90;;;;;;5045593;28;19963;-79
2021/09/20 02:49:40;;;;;;;;;;;11.70;99.90;;;;;;5047852;28;20007;-80
2021/09/20 02:52:05;;;;;;;;;;;11.70;99.90;;;;;;5054654;28;19955;-79
2021/09/20 02:54:31;;;;;;;;;;;11.70;99.90;;;;;;5050817;28;19913;-80
2021/09/20 02:56:56;;;;;;;;;;;11.70;70.10;;;;;;5036670;28;19973;-80
2021/09/20 02:59:22;;;;;;;;;;;11.70;4.80;;;;;;5038185;28;19966;-80
2021/09/20 03:01:47;;;;;;;;;;;11.70;1.00;;;;;;5036746;28;19916;-80
2021/09/20 03:04:13;;;;;;;;;;;11.70;1.00;;;;;;5046697;28;19917;-80
2021/09/20 03:06:38;;;;;;;;;;;11.60;1.00;;;;;;5054521;28;19916;-80
2021/09/20 03:09:04;;;;;;;;;;;11.60;1.00;;;;;;5045870;28;19924;-81
2021/09/20 03:11:29;;;;;;;;;;;11.60;1.00;;;;;;5035656;28;19917;-80
2021/09/20 03:13:55;;;;;;;;;;;11.60;1.00;;;;;;5036807;28;19917;-80
2021/09/20 03:16:20;;;;;;;;;;;11.60;1.00;;;;;;5053265;28;19913;-80
2021/09/20 03:18:46;;;;;;;;;;;11.60;1.00;;;;;;5055778;28;20027;-80
2021/09/20 03:21:11;;;;;;;;;;;11.50;1.00;;;;;;5050742;28;19920;-80
2021/09/20 03:23:37;;;;;;;;;;;11.50;1.00;;;;;;5051119;28;19943;-79
2021/09/20 03:26:02;;;;;;;;;;;11.50;1.00;;;;;;5056217;28;19912;-80
2021/09/20 03:28:28;;;;;;;;;;;11.50;1.00;;;;;;5054647;28;20367;-80
2021/09/20 03:30:53;;;;;;;;;;;11.50;1.00;;;;;;5037480;28;19913;-79
2021/09/20 03:33:19;;;;;;;;;;;11.50;1.00;;;;;;5036568;28;19924;-79
2021/09/20 03:35:44;;;;;;;;;;;11.50;1.00;;;;;;5048450;28;19979;-80
2021/09/20 03:38:10;;;;;;;;;;;11.50;1.00;;;;;;5054645;28;20011;-80
2021/09/20 03:40:35;;;;;;;;;;;11.40;1.00;;;;;;5047218;28;19958;-79
2021/09/20 03:43:01;;;;;;;;;;;11.40;1.00;;;;;;5055890;28;19974;-80
2021/09/20 03:45:26;;;;;;;;;;;11.40;1.00;;;;;;5051799;28;19995;-80
2021/09/20 03:47:52;;;;;;;;;;;11.40;1.00;;;;;;5055769;28;20389;-80
2021/09/20 03:50:17;;;;;;;;;;;11.40;27.40;;;;;;5043071;28;20417;-80
2021/09/20 03:52:43;;;;;;;;;;;11.30;59.20;;;;;;5035998;28;19910;-80
2021/09/20 03:55:09;;;;;;;;;;;11.30;99.90;;;;;;5045370;28;20369;-79
2021/09/20 03:57:34;;;;;;;;;;;11.30;99.90;;;;;;5046412;28;20410;-80
2021/09/20 04:00:00;;;;;;;;;;;11.30;99.90;;;;;;5043557;28;19912;-80
2021/09/20 04:02:25;;;;;;;;;;;11.30;99.90;;;;;;5055656;28;19908;-79
2021/09/20 04:04:51;;;;;;;;;;;11.20;99.90;;;;;;5053279;28;19912;-80
2021/09/20 04:07:16;;;;;;;;;;;11.30;99.90;;;;;;5055470;28;19915;-80
2021/09/20 04:09:42;;;;;;;;;;;11.20;99.90;;;;;;5050181;28;19917;-80
2021/09/20 04:12:09;;;;;;;;;;;11.20;99.90;;;;;;5035819;28;19923;-80
2021/09/20 04:14:35;;;;;;;;;;;11.20;99.90;;;;;;5042838;28;19912;-82
2021/09/20 04:17:01;;;;;;;;;;;11.20;99.90;;;;;;5018251;28;19913;-80
2021/09/20 04:19:26;;;;;;;;;;;11.10;99.90;;;;;;5043809;28;19962;-80
2021/09/20 04:21:52;;;;;;;;;;;11.00;99.90;;;;;;5055642;28;20008;-79
2021/09/20 04:24:17;;;;;;;;;;;11.00;99.90;;;;;;5051446;28;20296;-80
2021/09/20 04:26:43;;;;;;;;;;;11.00;99.90;;;;;;5054884;28;19927;-80
2021/09/20 04:29:08;;;;;;;;;;;11.00;99.90;;;;;;5051855;28;20402;-80
2021/09/20 04:31:34;;;;;;;;;;;11.00;99.90;;;;;;5017652;28;19913;-80
2021/09/20 04:33:59;;;;;;;;;;;11.00;99.90;;;;;;5035778;28;20404;-80
2021/09/20 04:36:24;;;;;;;;;;;11.00;99.90;;;;;;5035109;28;20027;-80
2021/09/20 04:38:50;;;;;;;;;;;11.00;99.90;;;;;;5037755;28;19916;-80
2021/09/20 04:41:15;;;;;;;;;;;11.00;99.90;;;;;;5053187;28;19916;-80
2021/09/20 04:43:41;;;;;;;;;;;11.00;99.90;;;;;;5054353;28;19913;-79
2021/09/20 04:46:06;;;;;;;;;;;11.00;99.90;;;;;;5054740;28;20359;-80
2021/09/20 04:48:32;;;;;;;;;;;10.90;99.90;;;;;;5054511;28;19908;-80
2021/09/20 04:50:57;;;;;;;;;;;10.90;99.90;;;;;;5029226;28;20004;-80
2021/09/20 04:53:23;;;;;;;;;;;10.90;99.90;;;;;;5035299;28;20377;-80
2021/09/20 04:55:49;;;;;;;;;;;10.90;99.90;;;;;;5049028;28;19913;-80
2021/09/20 04:58:15;;;;;;;;;;;10.80;99.90;;;;;;5054929;28;19963;-80
2021/09/20 05:00:40;;;;;;;;;;;10.80;99.90;;;;;;5041953;28;19909;-80
2021/09/20 05:03:06;;;;;;;;;;;10.80;99.90;;;;;;5036861;28;19916;-80
2021/09/20 05:05:32;;;;;;;;;;;10.80;99.90;;;;;;5035400;28;19916;-80
2021/09/20 05:07:57;;;;;;;;;;;10.90;99.90;;;;;;5042948;28;20295;-79
2021/09/20 05:10:23;;;;;;;;;;;10.80;99.90;;;;;;5055467;28;20403;-80
2021/09/20 05:12:49;;;;;;;;;;;10.80;99.90;;;;;;5053642;28;19913;-80
2021/09/20 05:15:15;;;;;;;;;;;10.80;99.90;;;;;;5046125;28;19923;-80
2021/09/20 05:17:41;;;;;;;;;;;10.80;99.90;;;;;;5054364;28;20300;-80
2021/09/20 05:20:07;;;;;;;;;;;10.80;99.90;;;;;;5052012;28;19958;-80
2021/09/20 05:22:32;;;;;;;;;;;10.80;99.90;;;;;;5038510;28;19925;-79
2021/09/20 05:24:58;;;;;;;;;;;10.80;99.90;;;;;;5042324;28;20011;-78
2021/09/20 05:27:23;;;;;;;;;;;10.80;99.90;;;;;;5046463;28;19974;-80
2021/09/20 05:29:49;;;;;;;;;;;10.80;99.90;;;;;;5041582;28;19925;-80
2021/09/20 05:32:14;;;;;;;;;;;10.90;99.90;;;;;;5054181;28;19916;-79
2021/09/20 05:34:40;;;;;;;;;;;11.00;99.90;;;;;;5053535;28;19909;-80
2021/09/20 05:37:05;;;;;;;;;;;11.10;99.90;;;;;;5034592;28;19909;-80
2021/09/20 05:39:33;;;;;;;;;;;11.20;99.90;;;;;;5043346;28;19909;-80
2021/09/20 05:41:59;;;;;;;;;;;11.30;99.00;;;;;;5051421;28;19929;-79
2021/09/20 05:44:24;;;;;;;;;;;11.50;1.00;;;;;;5029114;28;19927;-82
2021/09/20 05:46:50;;;;;;;;;;;11.60;1.00;;;;;;5057902;28;20288;-80
2021/09/20 05:49:15;;;;;;;;;;;11.80;99.90;;;;;;5047664;28;19913;-80
2021/09/20 05:51:41;;;;;;;;;;;12.00;48.50;;;;;;5039525;28;20389;-81
2021/09/20 05:54:08;;;;;;;;;;;12.60;1.00;;;;;;5023066;28;19976;-80
2021/09/20 05:56:33;;;;;;;;;;;14.80;99.90;;;;;;5051400;28;19920;-80
2021/09/20 05:58:59;;;;;;;;;;;17.30;99.90;;;;;;5036642;28;20382;-82
2021/09/20 06:01:24;;;;;;;;;;;19.60;1.00;;;;;;5042579;28;19913;-81
2021/09/20 06:03:50;;;;;;;;;;;21.10;99.90;;;;;;5054948;28;19940;-80
2021/09/20 06:06:15;;;;;;;;;;;21.00;99.90;;;;;;5055251;28;19913;-81
2021/09/20 06:08:41;;;;;;;;;;;21.10;99.90;;;;;;5054327;28;19985;-81
2021/09/20 06:11:06;;;;;;;;;;;22.40;99.90;;;;;;5037175;28;19916;-80
2021/09/20 06:13:32;;;;;;;;;;;22.90;99.90;;;;;;5040083;28;19958;-81
2021/09/20 06:15:57;;;;;;;;;;;23.40;99.90;;;;;;5033588;28;19972;-81
2021/09/20 06:18:22;;;;;;;;;;;24.20;99.90;;;;;;5040746;28;19913;-82
2021/09/20 06:20:48;;;;;;;;;;;25.50;99.90;;;;;;5024043;28;19913;-82
2021/09/20 06:23:13;;;;;;;;;;;27.00;99.90;;;;;;5053053;28;19932;-82
2021/09/20 06:25:39;;;;;;;;;;;28.70;99.90;;;;;;5035057;28;19949;-82
2021/09/20 06:28:05;;;;;;;;;;;30.30;99.90;;;;;;5038331;28;20321;-81
2021/09/20 06:30:30;;;;;;;;;;;31.80;99.90;;;;;;5055193;28;20474;-83
2021/09/20 06:32:56;;;;;;;;;;;33.00;99.90;;;;;;5045425;28;19948;-81
2021/09/20 06:35:21;;;;;;;;;;;34.00;99.90;;;;;;5039709;28;19909;-82
2021/09/20 06:37:47;;;;;;;;;;;34.70;99.90;;;;;;5051853;28;19913;-82
2021/09/20 06:40:13;;;;;;;;;;;35.40;99.90;;;;;;5058496;28;20304;-82
2021/09/20 06:42:38;;;;;;;;;;;36.20;99.90;;;;;;5019980;28;20842;-82
2021/09/20 06:45:04;;;;;;;;;;;36.90;99.90;;;;;;5049796;28;19922;-81
2021/09/20 06:47:29;;;;;;;;;;;37.60;99.90;;;;;;5044850;28;19916;-82
2021/09/20 06:49:55;;;;;;;;;;;38.30;99.90;;;;;;5052250;28;19920;-81
2021/09/20 06:52:20;;;;;;;;;;;38.50;99.90;;;;;;5059497;28;19935;-82
2021/09/20 06:54:46;;;;;;;;;;;38.60;99.90;;;;;;5051530;28;19916;-82
2021/09/20 06:57:12;;;;;;;;;;;38.80;99.90;;;;;;5041633;28;19919;-82
2021/09/20 06:59:37;;;;;;;;;;;39.00;99.90;;;;;;5035119;28;19912;-82
2021/09/20 07:02:03;;;;;;;;;;;39.20;99.90;;;;;;5056719;28;19956;-81
2021/09/20 07:04:28;;;;;;;;;;;39.30;99.90;;;;;;5056273;28;19952;-82
2021/09/20 07:06:54;;;;;;;;;;;39.40;99.90;;;;;;5057222;28;19971;-82
2021/09/20 07:09:19;;;;;;;;;;;39.50;99.90;;;;;;5051926;28;19924;-82
2021/09/20 07:11:45;;;;;;;;;;;39.60;99.90;;;;;;5038696;28;19913;-82
2021/09/20 07:14:11;;;;;;;;;;;39.70;99.90;;;;;;5038276;28;19935;-82
2021/09/20 07:16:36;;;;;;;;;;;39.60;99.90;;;;;;5054552;28;19917;-81
2021/09/20 07:19:02;;;;;;;;;;;39.40;99.90;;;;;;5044719;28;19916;-82
2021/09/20 07:21:27;;;;;;;;;;;39.40;99.90;;;;;;5059002;28;19931;-82
2021/09/20 07:23:57;;;;;;;;;;;39.50;99.90;;;;;;5056849;28;19939;-82
2021/09/20 07:26:23;;;;;;;;;;;39.70;99.90;;;;;;5052645;28;20292;-82
2021/09/20 07:28:49;;;;;;;;;;;40.30;99.90;;;;;;5055768;28;19935;-82
2021/09/20 07:31:15;;;;;;;;;;;40.50;99.90;;;;;;5051942;28;19917;-82
2021/09/20 07:33:40;;;;;;;;;;;40.80;99.90;;;;;;5037351;28;19959;-82
2021/09/20 07:36:06;;;;;;;;;;;41.00;99.90;;;;;;5057469;28;19928;-82
2021/09/20 07:38:31;;;;;;;;;;;41.10;99.90;;;;;;5038084;28;20291;-82
2021/09/20 07:40:57;;;;;;;;;;;41.30;99.90;;;;;;5041309;28;19913;-82
2021/09/20 07:43:23;;;;;;;;;;;41.30;99.90;;;;;;5050490;28;20335;-82
2021/09/20 07:45:49;;;;;;;;;;;40.90;99.90;;;;;;5030114;28;19913;-82
2021/09/20 07:48:14;;;;;;;;;;;40.10;99.90;;;;;;5049180;28;20420;-82
2021/09/20 07:50:40;;;;;;;;;;;39.40;99.90;;;;;;5040030;28;19923;-82
2021/09/20 07:53:05;;;;;;;;;;;38.90;99.90;;;;;;5051073;28;19913;-82
2021/09/20 07:55:35;;;;;;;;;;;38.30;99.90;;;;;;5046043;28;19912;-82
2021/09/20 07:58:09;;;;;;;;;;;37.80;99.90;;;;;;5059713;28;20396;-82
2021/09/20 08:00:36;;;;;;;;;;;37.70;99.90;;;;;;5052198;28;19917;-82
2021/09/20 08:03:06;;;;;;;;;;;37.80;99.90;;;;;;5037867;28;19932;-82
2021/09/20 08:05:31;;;;;;;;;;;37.90;99.90;;;;;;5042628;28;20004;-82
2021/09/20 08:07:56;;;;;;;;;;;38.30;99.90;;;;;;5049945;28;19967;-82
2021/09/20 08:10:22;;;;;;;;;;;38.00;99.90;;;;;;5046589;28;19917;-82
2021/09/20 08:12:47;;;;;;;;;;;37.30;99.90;;;;;;5051332;28;19995;-82
2021/09/20 08:15:13;;;;;;;;;;;37.10;99.90;;;;;;5036303;28;19920;-82
2021/09/20 08:17:38;;;;;;;;;;;37.40;99.90;;;;;;5038391;28;19913;-82
2021/09/20 08:20:05;;;;;;;;;;;38.30;99.90;;;;;;5043417;28;19917;-82
2021/09/20 08:22:32;;;;;;;;;;;39.10;99.90;;;;;;5048954;28;19913;-81
2021/09/20 08:24:57;;;;;;;;;;;39.50;99.90;;;;;;5025308;28;19913;-81
2021/09/20 08:27:23;;;;;;;;;;;39.30;99.90;;;;;;5029897;28;20304;-82
2021/09/20 08:29:49;;;;;;;;;;;39.10;99.90;;;;;;5047845;28;19919;-81
2021/09/20 08:32:15;;;;;;;;;;;39.00;99.90;;;;;;5048404;28;20438;-79
2021/09/20 08:34:40;;;;;;;;;;;39.40;99.90;;;;;;5033494;28;20015;-81
2021/09/20 08:37:06;;;;;;;;;;;39.90;99.90;;;;;;5054298;28;19913;-81
2021/09/20 08:39:31;;;;;;;;;;;39.80;99.90;;;;;;5042347;28;19917;-81
2021/09/20 08:41:57;;;;;;;;;;;39.90;99.90;;;;;;5043511;28;20407;-81
2021/09/20 08:44:23;;;;;;;;;;;40.30;99.90;;;;;;5048470;28;19963;-81
2021/09/20 08:46:50;;;;;;;;;;;40.90;99.90;;;;;;5054768;28;19917;-81
2021/09/20 08:49:18;;;;;;;;;;;41.50;99.90;;;;;;5042155;28;19913;-81
2021/09/20 08:51:44;;;;;;;;;;;41.90;99.90;;;;;;5039015;28;19909;-82
2021/09/20 08:54:09;;;;;;;;;;;42.00;99.90;;;;;;5057114;28;19920;-81
2021/09/20 08:56:35;;;;;;;;;;;41.80;99.90;;;;;;5056292;28;20475;-81
2021/09/20 08:59:01;;;;;;;;;;;41.50;99.90;;;;;;5033473;28;19972;-81
2021/09/20 09:01:26;;;;;;;;;;;41.30;99.90;;;;;;5038045;28;19947;-81
2021/09/20 09:03:52;;;;;;;;;;;41.20;99.90;;;;;;5034745;28;19917;-81
2021/09/20 09:06:27;;;;;;;;;;;41.30;99.90;;;;;;5053146;28;20335;-81
2021/09/20 09:08:53;;;;;;;;;;;41.70;99.90;;;;;;5048527;28;19912;-81
2021/09/20 09:11:18;;;;;;;;;;;41.70;99.90;;;;;;5050973;28;19959;-81
2021/09/20 09:13:45;;;;;;;;;;;41.90;99.90;;;;;;5050899;28;19924;-81
2021/09/20 09:16:21;;;;;;;;;;;42.00;99.90;;;;;;5049908;28;20708;-81
2021/09/20 09:18:56;;;;;;;;;;;41.70;99.90;;;;;;5042765;28;20266;-81
2021/09/20 09:21:22;;;;;;;;;;;41.10;99.90;;;;;;5053545;28;19912;-82
2021/09/20 09:23:57;;;;;;;;;;;40.20;99.90;;;;;;5052900;28;19924;-81
2021/09/20 09:26:23;;;;;;;;;;;40.10;99.90;;;;;;5054573;28;19909;-81
2021/09/20 09:28:51;;;;;;;;;;;40.10;99.90;;;;;;5051707;28;19920;-81
2021/09/20 09:31:17;;;;;;;;;;;40.10;99.90;;;;;;5053803;28;19909;-81
2021/09/20 09:33:46;;;;;;;;;;;40.30;99.90;;;;;;5041434;28;19917;-81
2021/09/20 09:36:14;;;;;;;;;;;39.60;99.90;;;;;;5033524;28;19913;-81
2021/09/20 09:39:12;;;;;;;;;;;38.80;99.90;;;;;;5035041;28;20412;-81
2021/09/20 09:41:43;;;;;;;;;;;39.70;99.90;;;;;;4974612;28;19913;-81
2021/09/20 09:44:11;;;;;;;;;;;40.60;99.90;;;;;;5040195;28;19917;-81
2021/09/20 09:46:37;;;;;;;;;;;40.80;99.90;;;;;;5019363;28;19968;-81
2021/09/20 09:49:13;;;;;;;;;;;40.40;99.90;;;;;;5053110;28;19913;-81
2021/09/20 09:51:54;;;;;;;;;;;40.00;99.90;;;;;;5050217;28;19919;-81
2021/09/20 09:54:24;;;;;;;;;;;38.70;99.90;;;;;;5044580;28;19920;-81
2021/09/20 09:56:50;;;;;;;;;;;37.30;99.90;;;;;;5017756;28;19948;-81
2021/09/20 09:59:25;;;;;;;;;;;37.10;99.90;;;;;;5047295;28;19913;-80
2021/09/20 10:01:50;;;;;;;;;;;36.30;99.90;;;;;;5034348;28;19948;-81
2021/09/20 10:04:23;;;;;;;;;;;35.00;99.90;;;;;;5040335;28;19917;-81
2021/09/20 10:06:53;;;;;;;;;;;34.20;99.90;;;;;;5051341;28;19920;-81
2021/09/20 10:09:21;;;;;;;;;;;34.20;99.90;;;;;;5038070;28;19917;-81
2021/09/20 10:11:47;;;;;;;;;;;34.80;99.90;;;;;;5037152;28;19909;-81
2021/09/20 10:14:14;;;;;;;;;;;35.10;99.90;;;;;;5048891;28;19913;-81
2021/09/20 10:16:39;;;;;;;;;;;35.20;99.90;;;;;;5057127;28;20014;-82
2021/09/20 10:19:05;;;;;;;;;;;36.20;99.90;;;;;;5049548;28;20399;-81
2021/09/20 10:21:31;;;;;;;;;;;35.50;99.90;;;;;;5056491;28;19913;-82
2021/09/20 10:23:58;;;;;;;;;;;35.60;99.90;;;;;;5042855;28;19924;-81
2021/09/20 10:26:24;;;;;;;;;;;36.40;99.90;;;;;;5057577;28;19915;-81
2021/09/20 10:28:51;;;;;;;;;;;36.40;99.90;;;;;;5052453;28;19919;-81
2021/09/20 10:31:17;;;;;;;;;;;36.20;99.90;;;;;;5056490;28;19920;-81
2021/09/20 10:33:43;;;;;;;;;;;35.60;99.90;;;;;;5048974;28;19914;-81
2021/09/20 10:36:08;;;;;;;;;;;33.70;99.90;;;;;;5040538;28;19917;-80
2021/09/20 10:38:34;;;;;;;;;;;32.30;99.90;;;;;;5052946;28;19967;-81
2021/09/20 10:41:13;;;;;;;;;;;31.90;99.90;;;;;;5039826;28;19923;-81
2021/09/20 10:43:43;;;;;;;;;;;32.00;99.90;;;;;;5043230;28;19917;-80
2021/09/20 10:46:21;;;;;;;;;;;32.10;99.90;;;;;;5056393;28;19935;-80
2021/09/20 10:48:48;;;;;;;;;;;31.40;99.90;;;;;;5054840;28;19925;-80
2021/09/20 10:51:16;;;;;;;;;;;30.80;99.90;;;;;;5058014;28;19917;-80
2021/09/20 10:53:42;;;;;;;;;;;30.20;99.90;;;;;;5056408;28;19974;-80
2021/09/20 10:56:11;;;;;;;;;;;29.60;99.90;;;;;;5057139;28;19923;-80
2021/09/20 10:58:39;;;;;;;;;;;29.10;99.90;;;;;;5047133;28;19920;-81
2021/09/20 11:01:10;;;;;;;;;;;28.90;99.90;;;;;;5038023;28;20154;-81
2021/09/20 11:03:39;;;;;;;;;;;29.30;99.90;;;;;;5050074;28;20389;-80
2021/09/20 11:06:18;;;;;;;;;;;29.00;99.90;;;;;;5057289;28;19936;-81
2021/09/20 11:08:44;;;;;;;;;;;28.50;99.90;;;;;;5049270;28;20267;-80
2021/09/20 11:11:28;;;;;;;;;;;28.00;99.90;;;;;;5035300;28;19919;-80
2021/09/20 11:14:00;;;;;;;;;;;27.40;99.90;;;;;;5047013;28;19912;-81
2021/09/20 11:16:59;;;;;;;;;;;26.90;99.90;;;;;;5099467;27;20319;-81
2021/09/20 11:19:28;;;;;;;;;;;26.80;99.90;;;;;;5100743;28;19916;-81
2021/09/20 11:22:03;;;;;;;;;;;26.70;99.90;;;;;;5093430;28;19913;-80
2021/09/20 11:24:29;;;;;;;;;;;26.70;99.90;;;;;;5089518;28;19912;-82
2021/09/20 11:26:55;;;;;;;;;;;26.40;99.90;;;;;;5092698;28;20003;-81
2021/09/20 11:29:24;;;;;;;;;;;25.90;99.90;;;;;;5093650;28;19944;-81
2021/09/20 11:31:51;;;;;;;;;;;25.80;99.90;;;;;;5086517;28;20384;-81
2021/09/20 11:34:30;;;;;;;;;;;25.60;99.90;;;;;;5089461;28;19912;-81
2021/09/20 11:37:18;;;;;;;;;;;25.40;99.90;;;;;;5082182;28;19923;-81
2021/09/20 11:39:48;;;;;;;;;;;25.40;99.90;;;;;;5091574;28;19912;-82
2021/09/20 11:42:15;;;;;;;;;;;25.40;99.90;;;;;;5090862;28;19912;-81
2021/09/20 11:44:51;;;;;;;;;;;25.20;99.90;;;;;;5109877;28;19922;-82
2021/09/20 11:47:18;;;;;;;;;;;25.10;99.90;;;;;;5097488;28;19923;-83
2021/09/20 11:49:46;;;;;;;;;;;25.10;99.90;;;;;;5092692;28;19934;-82
2021/09/20 11:52:12;;;;;;;;;;;24.90;99.90;;;;;;5087704;28;19938;-81
2021/09/20 11:54:38;;;;;;;;;;;24.60;99.90;;;;;;5105662;28;19912;-81
2021/09/20 11:57:20;;;;;;;;;;;24.70;99.90;;;;;;5100870;28;19974;-82
2021/09/20 11:59:46;;;;;;;;;;;25.40;99.90;;;;;;5093120;28;19912;-82
2021/09/20 12:02:32;;;;;;;;;;;25.50;99.90;;;;;;5088734;28;20004;-81
2021/09/20 12:04:58;;;;;;;;;;;25.90;99.90;;;;;;5079558;28;19927;-82
2021/09/20 12:07:26;;;;;;;;;;;26.80;99.90;;;;;;5091359;28;19908;-81
2021/09/20 12:09:52;;;;;;;;;;;26.50;99.90;;;;;;5090035;28;19924;-81
2021/09/20 12:12:17;;;;;;;;;;;26.40;99.90;;;;;;5091931;28;19908;-81
2021/09/20 12:14:54;;;;;;;;;;;26.40;99.90;;;;;;5091419;28;19923;-81
2021/09/20 12:17:19;;;;;;;;;;;26.30;99.90;;;;;;5085494;28;19912;-81
2021/09/20 12:19:54;;;;;;;;;;;26.20;99.90;;;;;;5092625;28;20261;-81
2021/09/20 12:22:20;;;;;;;;;;;26.50;99.90;;;;;;5095965;28;19920;-81
2021/09/20 12:24:45;;;;;;;;;;;26.70;99.90;;;;;;5106766;28;19909;-81
2021/09/20 12:27:11;;;;;;;;;;;26.40;99.90;;;;;;5082966;28;19912;-81
2021/09/20 12:29:37;;;;;;;;;;;26.30;99.90;;;;;;5077980;28;19915;-81
2021/09/20 12:32:03;;;;;;;;;;;26.00;99.90;;;;;;5078631;28;19919;-81
2021/09/20 12:34:33;;;;;;;;;;;25.70;99.90;;;;;;5079221;28;19909;-81
2021/09/20 12:37:01;;;;;;;;;;;25.70;99.90;;;;;;5068427;28;19916;-81
2021/09/20 12:39:32;;;;;;;;;;;25.40;99.90;;;;;;5057947;28;19916;-81
2021/09/20 12:42:03;;;;;;;;;;;25.10;99.90;;;;;;5069228;28;19913;-81
2021/09/20 12:44:30;;;;;;;;;;;25.00;99.90;;;;;;5079778;28;19912;-81
2021/09/20 12:47:11;;;;;;;;;;;25.00;99.90;;;;;;5079628;28;20034;-81
2021/09/20 12:49:37;;;;;;;;;;;24.80;99.90;;;;;;5080610;28;19951;-81
2021/09/20 12:52:03;;;;;;;;;;;24.60;99.90;;;;;;5081107;28;19912;-81
2021/09/20 12:54:29;;;;;;;;;;;24.50;99.90;;;;;;5063033;28;20292;-81
2021/09/20 12:57:13;;;;;;;;;;;24.50;99.90;;;;;;5069380;28;19967;-81
2021/09/20 12:59:39;;;;;;;;;;;24.70;99.90;;;;;;5078123;28;19909;-83
2021/09/20 13:02:09;;;;;;;;;;;24.70;99.90;;;;;;5080638;28;19923;-81
2021/09/20 13:04:36;;;;;;;;;;;24.50;99.90;;;;;;5081012;28;19909;-80
2021/09/20 13:07:06;;;;;;;;;;;24.50;99.90;;;;;;5080794;28;19912;-81
2021/09/20 13:09:33;;;;;;;;;;;24.50;99.90;;;;;;5079420;28;19908;-81
2021/09/20 13:12:04;;;;;;;;;;;24.60;99.90;;;;;;5072821;28;19919;-81
2021/09/20 13:14:30;;;;;;;;;;;24.60;99.90;;;;;;5060317;28;19976;-81
2021/09/20 13:17:04;;;;;;;;;;;24.60;99.90;;;;;;5065680;28;19916;-81
2021/09/20 13:19:29;;;;;;;;;;;24.50;99.90;;;;;;5079267;28;19908;-81
2021/09/20 13:22:04;;;;;;;;;;;24.60;99.90;;;;;;5080415;28;19912;-81
2021/09/20 13:24:31;;;;;;;;;;;24.50;99.90;;;;;;5080891;28;20367;-80
2021/09/20 13:26:57;;;;;;;;;;;24.40;99.90;;;;;;5079297;28;19962;-81
2021/09/20 13:29:22;;;;;;;;;;;24.10;99.90;;;;;;5077668;28;19909;-81
2021/09/20 13:31:48;;;;;;;;;;;23.90;99.90;;;;;;5078948;28;19999;-81
2021/09/20 13:34:13;;;;;;;;;;;23.80;99.90;;;;;;5080465;28;19909;-81
2021/09/20 13:36:38;;;;;;;;;;;23.80;99.90;;;;;;5078409;28;19916;-81
2021/09/20 13:39:04;;;;;;;;;;;23.70;99.90;;;;;;5077585;28;19950;-81
2021/09/20 13:41:30;;;;;;;;;;;23.50;99.90;;;;;;5079830;28;20404;-81
2021/09/20 13:43:55;;;;;;;;;;;23.40;99.90;;;;;;5079173;28;20369;-81
2021/09/20 13:46:24;;;;;;;;;;;23.30;99.90;;;;;;5078851;28;20350;-81
2021/09/20 13:48:51;;;;;;;;;;;23.20;99.90;;;;;;5069923;28;20446;-80
2021/09/20 13:51:16;;;;;;;;;;;23.10;99.90;;;;;;5062933;28;20405;-80
2021/09/20 13:53:42;;;;;;;;;;;23.10;99.90;;;;;;5079462;28;19995;-80
2021/09/20 13:56:08;;;;;;;;;;;23.10;99.90;;;;;;5079021;28;20014;-80
2021/09/20 13:58:33;;;;;;;;;;;23.20;99.90;;;;;;5080142;28;19936;-80
2021/09/20 14:00:59;;;;;;;;;;;23.10;99.90;;;;;;5080143;28;19974;-80
2021/09/20 14:03:25;;;;;;;;;;;23.10;99.90;;;;;;5079565;28;19913;-80
2021/09/20 14:05:51;;;;;;;;;;;23.10;99.90;;;;;;5074561;28;19947;-80
2021/09/20 14:08:17;;;;;;;;;;;23.20;99.90;;;;;;5078804;28;19912;-80
2021/09/20 14:10:43;;;;;;;;;;;23.30;99.90;;;;;;5079363;28;19912;-80
2021/09/20 14:13:09;;;;;;;;;;;23.30;99.90;;;;;;5078330;28;19995;-80
2021/09/20 14:15:35;;;;;;;;;;;23.30;99.90;;;;;;5078795;28;19916;-80
2021/09/20 14:18:00;;;;;;;;;;;23.30;99.90;;;;;;5079484;28;19912;-80